createdAt,value
2023-07-28T00:00:13.623Z,17.1
2023-07-28T00:04:57.511Z,17.06
2023-07-28T00:09:41.347Z,17.06
2023-07-28T00:14:25.109Z,17.13
2023-07-28T00:19:09.051Z,17.16
2023-07-28T00:23:53.019Z,17.16
2023-07-28T00:28:36.949Z,17.12
2023-07-28T00:33:20.884Z,17.08
2023-07-28T00:38:04.762Z,17.17
2023-07-28T00:42:48.758Z,17.16
2023-07-28T00:47:32.723Z,17.14
2023-07-28T00:52:16.725Z,17.22
2023-07-28T00:57:00.616Z,17.22
2023-07-28T01:01:44.530Z,17.2
2023-07-28T01:06:28.604Z,17.25
2023-07-28T01:11:12.699Z,17.24
2023-07-28T01:15:56.685Z,17.32
2023-07-28T01:20:40.810Z,17.31
2023-07-28T01:25:24.710Z,17.36
2023-07-28T01:30:08.616Z,17.4
2023-07-28T01:34:53.083Z,17.53
2023-07-28T01:39:36.992Z,17.55
2023-07-28T01:44:20.892Z,17.59
2023-07-28T01:49:04.902Z,17.56
2023-07-28T01:53:48.725Z,17.61
2023-07-28T01:58:32.531Z,17.57
2023-07-28T02:03:16.401Z,17.6
2023-07-28T02:08:00.382Z,17.63
2023-07-28T02:12:44.268Z,17.67
2023-07-28T02:17:28.121Z,17.57
2023-07-28T02:22:12.271Z,17.52
2023-07-28T02:26:56.147Z,17.43
2023-07-28T02:31:39.972Z,17.31
2023-07-28T02:36:23.885Z,17.16
2023-07-28T02:41:07.735Z,17.05
2023-07-28T02:45:51.626Z,17.05
2023-07-28T02:50:35.501Z,17
2023-07-28T02:55:19.356Z,17.04
2023-07-28T03:00:03.169Z,17.1
2023-07-28T03:04:46.967Z,17.17
2023-07-28T03:09:31.190Z,17.2
2023-07-28T03:14:15.165Z,17.21
2023-07-28T03:18:58.927Z,17.31
2023-07-28T03:23:45.794Z,17.28
2023-07-28T03:28:29.853Z,17.3
2023-07-28T03:33:13.874Z,17.3
2023-07-28T03:37:57.793Z,17.27
2023-07-28T03:42:41.982Z,17.23
2023-07-28T03:47:26.206Z,17.26
2023-07-28T03:52:10.192Z,17.24
2023-07-28T03:56:54.028Z,17.28
2023-07-28T04:01:38.033Z,17.27
2023-07-28T04:06:22.354Z,17.29
2023-07-28T04:11:06.307Z,17.31
2023-07-28T04:15:50.577Z,17.31
2023-07-28T04:20:34.637Z,17.45
2023-07-28T04:25:18.693Z,17.53
2023-07-28T04:30:02.957Z,17.58
2023-07-28T04:34:47.006Z,17.65
2023-07-28T04:39:31.088Z,17.73
2023-07-28T04:44:15.205Z,17.87
2023-07-28T04:48:59.370Z,17.95
2023-07-28T04:53:43.564Z,18.02
2023-07-28T04:58:27.723Z,18.04
2023-07-28T05:03:11.902Z,17.99
2023-07-28T05:07:55.935Z,17.89
2023-07-28T05:12:39.989Z,17.59
2023-07-28T05:17:23.906Z,17.21
2023-07-28T05:22:08.011Z,16.99
2023-07-28T05:26:52.168Z,16.95
2023-07-28T05:31:36.413Z,16.94
2023-07-28T05:36:20.829Z,17.11
2023-07-28T05:41:05.339Z,17.17
2023-07-28T05:45:49.405Z,17.27
2023-07-28T05:50:33.435Z,17.29
2023-07-28T05:55:17.444Z,17.39
2023-07-28T06:00:01.492Z,17.5
2023-07-28T06:04:45.464Z,17.56
2023-07-28T06:09:29.713Z,17.66
2023-07-28T06:14:13.716Z,17.78
2023-07-28T06:18:57.733Z,17.91
2023-07-28T06:23:44.588Z,17.96
2023-07-28T06:28:28.546Z,18.03
2023-07-28T06:33:12.811Z,18
2023-07-28T06:37:56.776Z,18.08
2023-07-28T06:42:40.989Z,18.1
2023-07-28T06:47:24.944Z,18.21
2023-07-28T06:52:09.156Z,18.36
2023-07-28T06:56:55.855Z,18.42
2023-07-28T07:01:39.788Z,18.58
2023-07-28T07:06:23.946Z,18.66
2023-07-28T07:11:08.408Z,18.79
2023-07-28T07:15:52.474Z,19.08
2023-07-28T07:20:37.344Z,19.17
2023-07-28T07:25:21.466Z,19.24
2023-07-28T07:30:05.682Z,19.33
2023-07-28T07:34:49.814Z,19.3
2023-07-28T07:39:33.990Z,19.4
2023-07-28T07:44:18.064Z,19.42
2023-07-28T07:49:02.141Z,19.5
2023-07-28T07:53:46.236Z,19.58
2023-07-28T07:58:30.342Z,19.47
2023-07-28T08:03:14.324Z,19.49
2023-07-28T08:07:58.360Z,19.48
2023-07-28T08:12:42.630Z,19.45
2023-07-28T08:17:26.845Z,19.61
2023-07-28T08:22:11.048Z,19.47
2023-07-28T08:26:55.138Z,19.34
2023-07-28T08:31:39.463Z,19.49
2023-07-28T08:36:23.791Z,19.84
2023-07-28T08:41:08.008Z,20.06
2023-07-28T08:45:52.043Z,20.09
2023-07-28T08:50:36.109Z,19.93
2023-07-28T08:55:20.121Z,19.91
2023-07-28T09:00:04.216Z,19.89
2023-07-28T09:04:48.279Z,20.08
2023-07-28T09:09:32.326Z,20.64
2023-07-28T09:14:16.650Z,21.15
2023-07-28T09:19:00.804Z,21.21
2023-07-28T09:23:44.650Z,22.64
2023-07-28T09:28:28.696Z,24.06
2023-07-28T09:33:13.028Z,24.42
2023-07-28T09:37:57.009Z,24.85
2023-07-28T09:42:41.168Z,24.69
2023-07-28T09:47:25.226Z,23.9
2023-07-28T09:52:09.327Z,23.62
2023-07-28T09:56:53.716Z,23.24
2023-07-28T10:01:40.182Z,23.2
2023-07-28T10:06:26.253Z,23.2
2023-07-28T10:11:10.317Z,22.83
2023-07-28T10:15:54.146Z,22.82
2023-07-28T10:20:38.340Z,23.74
2023-07-28T10:25:23.571Z,25.18
2023-07-28T10:30:07.684Z,26.09
2023-07-28T10:34:51.534Z,25.71
2023-07-28T10:39:37.147Z,24.72
2023-07-28T10:44:22.998Z,24.77
2023-07-28T10:49:06.982Z,25.9
2023-07-28T10:53:50.811Z,25.53
2023-07-28T10:58:35.003Z,25.52
2023-07-28T11:03:19.026Z,25.65
2023-07-28T11:08:03.230Z,26.87
2023-07-28T11:12:47.189Z,26.28
2023-07-28T11:17:31.288Z,26.41
2023-07-28T11:22:15.593Z,27.37
2023-07-28T11:26:59.493Z,27.55
2023-07-28T11:31:43.411Z,27.13
2023-07-28T11:36:30.414Z,26.09
2023-07-28T11:41:14.990Z,26.07
2023-07-28T11:46:02.631Z,26.71
2023-07-28T11:50:46.838Z,26.77
2023-07-28T11:55:30.771Z,26.32
2023-07-28T12:00:14.938Z,26.81
2023-07-28T12:09:50.073Z,29.1
2023-07-28T12:14:50.551Z,28.84
2023-07-28T12:28:27.524Z,27.76
2023-07-28T12:38:04.184Z,27.04
2023-07-28T12:48:21.474Z,27.65
2023-07-28T12:53:13.957Z,27.52
2023-07-28T12:59:25.614Z,29.51
2023-07-28T13:04:10.237Z,29.92
2023-07-28T13:13:47.581Z,30.68
2023-07-28T13:18:31.527Z,31.84
2023-07-28T13:23:15.576Z,30.22
2023-07-28T13:27:59.659Z,30.95
2023-07-28T13:32:43.595Z,31.15
2023-07-28T13:37:27.846Z,30.99
2023-07-28T13:42:12.110Z,30.1
2023-07-28T13:46:57.103Z,29.7
2023-07-28T13:56:34.112Z,28.57
2023-07-28T14:01:18.291Z,29.67
2023-07-28T14:06:02.543Z,29.91
2023-07-28T14:10:46.838Z,29.03
2023-07-28T14:15:30.963Z,28.63
2023-07-28T14:20:14.930Z,28.73
2023-07-28T14:24:58.984Z,28.58
2023-07-28T14:29:42.930Z,28.27
2023-07-28T14:34:26.999Z,28.05
2023-07-28T14:39:10.963Z,27.79
2023-07-28T14:43:55.015Z,27.62
2023-07-28T14:48:38.965Z,27.54
2023-07-28T14:53:23.038Z,27.3
2023-07-28T14:58:07.099Z,27.39
2023-07-28T15:02:53.430Z,27.48
2023-07-28T15:07:37.504Z,27.39
2023-07-28T15:12:21.709Z,27.28
2023-07-28T15:17:05.673Z,26.99
2023-07-28T15:21:49.637Z,27.05
2023-07-28T15:26:33.576Z,27.12
2023-07-28T15:31:17.497Z,27.13
2023-07-28T15:36:02.206Z,26.99
2023-07-28T15:40:46.124Z,26.95
2023-07-28T15:45:29.997Z,27.01
2023-07-28T15:50:13.999Z,27.01
2023-07-28T15:54:58.038Z,26.79
2023-07-28T15:59:42.098Z,26.86
2023-07-28T16:04:28.322Z,26.87
2023-07-28T16:09:16.538Z,26.81
2023-07-28T16:14:01.229Z,26.76
2023-07-28T16:18:45.384Z,26.6
2023-07-28T16:23:29.456Z,26.51
2023-07-28T16:28:13.518Z,26.54
2023-07-28T16:32:57.554Z,26.47
2023-07-28T16:37:41.735Z,26.49
2023-07-28T16:42:25.887Z,26.45
2023-07-28T16:47:09.897Z,26.35
2023-07-28T16:51:53.999Z,26.27
2023-07-28T16:56:38.246Z,26.25
2023-07-28T17:01:22.251Z,26.25
2023-07-28T17:06:06.331Z,26.26
2023-07-28T17:10:50.384Z,26.19
2023-07-28T17:15:40.423Z,26.07
2023-07-28T17:20:25.328Z,25.97
2023-07-28T17:25:09.596Z,25.92
2023-07-28T17:29:53.647Z,25.83
2023-07-28T17:34:37.716Z,25.8
2023-07-28T17:39:22.076Z,25.64
2023-07-28T17:44:06.431Z,25.29
2023-07-28T17:48:51.520Z,24.99
2023-07-28T17:53:35.474Z,24.71
2023-07-28T17:58:19.544Z,24.55
2023-07-28T18:03:03.676Z,24.34
2023-07-28T18:07:48.057Z,24.18
2023-07-28T18:12:32.115Z,23.93
2023-07-28T18:17:16.107Z,23.71
2023-07-28T18:22:00.272Z,23.55
2023-07-28T18:26:44.428Z,23.59
2023-07-28T18:31:28.487Z,23.46
2023-07-28T18:36:12.438Z,23.34
2023-07-28T18:40:56.401Z,23.14
2023-07-28T18:45:41.673Z,22.99
2023-07-28T18:50:25.739Z,22.84
2023-07-28T18:55:09.697Z,22.77
2023-07-28T18:59:53.778Z,22.68
2023-07-28T19:04:37.799Z,22.62
2023-07-28T19:09:22.097Z,22.49
2023-07-28T19:14:06.347Z,22.4
2023-07-28T19:18:50.407Z,22.34
2023-07-28T19:23:34.455Z,22.25
2023-07-28T19:28:18.620Z,22.18
2023-07-28T19:33:03.059Z,22.15
2023-07-28T19:37:47.553Z,22.11
2023-07-28T19:42:31.505Z,22.05
2023-07-28T19:47:15.774Z,22.02
2023-07-28T19:51:59.943Z,21.96
2023-07-28T19:56:43.885Z,21.77
2023-07-28T20:01:28.004Z,21.71
2023-07-28T20:06:12.222Z,21.73
2023-07-28T20:10:56.284Z,21.76
2023-07-28T20:15:40.537Z,21.73
2023-07-28T20:20:24.894Z,21.61
2023-07-28T20:25:09.165Z,21.57
2023-07-28T20:29:53.112Z,21.5
2023-07-28T20:34:37.382Z,21.42
2023-07-28T20:39:21.549Z,21.36
2023-07-28T20:44:05.799Z,21.25
2023-07-28T20:48:49.879Z,21.18
2023-07-28T20:53:37.612Z,21.14
2023-07-28T20:58:21.665Z,21.05
2023-07-28T21:03:05.786Z,20.92
2023-07-28T21:07:50.301Z,20.86
2023-07-28T21:12:34.356Z,20.86
2023-07-28T21:17:18.760Z,20.83
2023-07-28T21:22:02.791Z,20.72
2023-07-28T21:26:46.782Z,20.69
2023-07-28T21:31:30.714Z,20.61
2023-07-28T21:36:14.653Z,20.64
2023-07-28T21:40:58.406Z,20.65
2023-07-28T21:45:42.362Z,20.54
2023-07-28T21:50:26.367Z,20.4
2023-07-28T21:55:10.365Z,20.39
2023-07-28T21:59:54.569Z,20.38
2023-07-28T22:04:38.416Z,20.36
2023-07-28T22:09:22.434Z,20.34
2023-07-28T22:14:06.914Z,20.32
2023-07-28T22:18:50.832Z,20.32
2023-07-28T22:23:37.211Z,20.31
2023-07-28T22:28:21.146Z,20.25
2023-07-28T22:33:05.281Z,20.27
2023-07-28T22:37:49.387Z,20.28
2023-07-28T22:42:33.224Z,20.25
2023-07-28T22:47:17.329Z,20.18
2023-07-28T22:52:01.326Z,20.05
2023-07-28T22:56:45.237Z,19.94
2023-07-28T23:01:29.311Z,19.63
2023-07-28T23:06:13.492Z,19.47
2023-07-28T23:10:57.264Z,19.38
2023-07-28T23:15:41.078Z,19.41
2023-07-28T23:20:24.932Z,19.39
2023-07-28T23:25:09.079Z,19.34
2023-07-28T23:29:53.013Z,19.23
2023-07-28T23:34:37.176Z,19.23
2023-07-28T23:39:20.986Z,19.37
2023-07-28T23:44:04.799Z,19.41
2023-07-28T23:48:48.696Z,19.41
2023-07-28T23:53:32.709Z,19.38
2023-07-28T23:58:16.581Z,19.37
